sensor_id;sensor_type;location;lat;lon;timestamp;temperature;humidity
32217;DHT22;18709;51.140;4.088;2022-12-07T00:01:16;8.60;90.90
32217;DHT22;18709;51.140;4.088;2022-12-07T00:03:44;8.40;91.00
32217;DHT22;18709;51.140;4.088;2022-12-07T00:06:12;8.30;91.30
32217;DHT22;18709;51.140;4.088;2022-12-07T00:08:38;8.30;91.20
32217;DHT22;18709;51.140;4.088;2022-12-07T00:11:06;8.40;91.10
32217;DHT22;18709;51.140;4.088;2022-12-07T00:13:33;8.60;90.90
32217;DHT22;18709;51.140;4.088;2022-12-07T00:16:04;8.50;90.90
32217;DHT22;18709;51.140;4.088;2022-12-07T00:18:30;8.40;90.90
32217;DHT22;18709;51.140;4.088;2022-12-07T00:21:03;8.40;90.70
32217;DHT22;18709;51.140;4.088;2022-12-07T00:23:29;8.30;90.90
32217;DHT22;18709;51.140;4.088;2022-12-07T00:25:55;8.20;91.10
32217;DHT22;18709;51.140;4.088;2022-12-07T00:28:21;8.30;90.70
32217;DHT22;18709;51.140;4.088;2022-12-07T00:30:47;8.30;90.80
32217;DHT22;18709;51.140;4.088;2022-12-07T00:33:12;8.10;91.20
32217;DHT22;18709;51.140;4.088;2022-12-07T00:35:38;8.00;91.30
32217;DHT22;18709;51.140;4.088;2022-12-07T00:38:03;8.00;91.30
32217;DHT22;18709;51.140;4.088;2022-12-07T00:40:29;8.00;91.40
32217;DHT22;18709;51.140;4.088;2022-12-07T00:42:54;8.20;91.30
32217;DHT22;18709;51.140;4.088;2022-12-07T00:45:20;8.20;91.50
32217;DHT22;18709;51.140;4.088;2022-12-07T00:47:46;8.30;91.50
32217;DHT22;18709;51.140;4.088;2022-12-07T00:50:11;8.40;91.20
32217;DHT22;18709;51.140;4.088;2022-12-07T00:52:37;8.40;91.10
32217;DHT22;18709;51.140;4.088;2022-12-07T00:55:03;8.40;91.20
32217;DHT22;18709;51.140;4.088;2022-12-07T00:57:30;8.50;91.10
32217;DHT22;18709;51.140;4.088;2022-12-07T00:59:57;8.60;91.30
32217;DHT22;18709;51.140;4.088;2022-12-07T01:02:23;8.50;91.60
32217;DHT22;18709;51.140;4.088;2022-12-07T01:04:49;8.60;91.60
32217;DHT22;18709;51.140;4.088;2022-12-07T01:07:15;8.60;91.60
32217;DHT22;18709;51.140;4.088;2022-12-07T01:09:40;8.70;91.40
32217;DHT22;18709;51.140;4.088;2022-12-07T01:12:06;8.80;91.20
32217;DHT22;18709;51.140;4.088;2022-12-07T01:14:31;8.70;91.50
32217;DHT22;18709;51.140;4.088;2022-12-07T01:16:58;8.60;91.60
32217;DHT22;18709;51.140;4.088;2022-12-07T01:19:24;8.60;91.60
32217;DHT22;18709;51.140;4.088;2022-12-07T01:21:49;8.50;91.70
32217;DHT22;18709;51.140;4.088;2022-12-07T01:24:15;8.50;91.50
32217;DHT22;18709;51.140;4.088;2022-12-07T01:26:41;8.60;91.30
32217;DHT22;18709;51.140;4.088;2022-12-07T01:29:06;8.60;91.30
32217;DHT22;18709;51.140;4.088;2022-12-07T01:31:32;8.70;91.10
32217;DHT22;18709;51.140;4.088;2022-12-07T01:33:59;8.60;91.40
32217;DHT22;18709;51.140;4.088;2022-12-07T01:36:28;8.60;91.40
32217;DHT22;18709;51.140;4.088;2022-12-07T01:38:57;8.60;91.30
32217;DHT22;18709;51.140;4.088;2022-12-07T01:41:25;8.50;91.30
32217;DHT22;18709;51.140;4.088;2022-12-07T01:44:23;8.50;90.90
32217;DHT22;18709;51.140;4.088;2022-12-07T01:46:55;8.30;91.20
32217;DHT22;18709;51.140;4.088;2022-12-07T01:49:46;8.20;91.10
32217;DHT22;18709;51.140;4.088;2022-12-07T01:52:17;8.20;90.80
32217;DHT22;18709;51.140;4.088;2022-12-07T01:54:46;8.00;91.10
32217;DHT22;18709;51.140;4.088;2022-12-07T01:57:14;8.10;90.80
32217;DHT22;18709;51.140;4.088;2022-12-07T01:59:41;8.20;90.40
32217;DHT22;18709;51.140;4.088;2022-12-07T02:02:13;8.10;90.40
32217;DHT22;18709;51.140;4.088;2022-12-07T02:04:43;8.00;90.80
32217;DHT22;18709;51.140;4.088;2022-12-07T02:07:09;7.90;90.80
32217;DHT22;18709;51.140;4.088;2022-12-07T02:09:35;7.80;91.00
32217;DHT22;18709;51.140;4.088;2022-12-07T02:12:01;7.60;91.60
32217;DHT22;18709;51.140;4.088;2022-12-07T02:14:27;7.70;91.70
32217;DHT22;18709;51.140;4.088;2022-12-07T02:17:04;7.80;91.40
32217;DHT22;18709;51.140;4.088;2022-12-07T02:20:00;7.90;91.40
32217;DHT22;18709;51.140;4.088;2022-12-07T02:28:36;8.00;91.50
32217;DHT22;18709;51.140;4.088;2022-12-07T02:31:12;8.10;91.20
32217;DHT22;18709;51.140;4.088;2022-12-07T02:34:07;8.20;91.20
32217;DHT22;18709;51.140;4.088;2022-12-07T02:36:41;8.20;91.40
32217;DHT22;18709;51.140;4.088;2022-12-07T02:39:16;8.20;91.40
32217;DHT22;18709;51.140;4.088;2022-12-07T02:41:55;8.20;91.50
32217;DHT22;18709;51.140;4.088;2022-12-07T02:44:24;8.30;91.40
32217;DHT22;18709;51.140;4.088;2022-12-07T02:47:03;8.30;91.40
32217;DHT22;18709;51.140;4.088;2022-12-07T02:49:30;8.30;91.60
32217;DHT22;18709;51.140;4.088;2022-12-07T02:51:56;8.40;91.50
32217;DHT22;18709;51.140;4.088;2022-12-07T02:54:22;8.40;91.50
32217;DHT22;18709;51.140;4.088;2022-12-07T02:57:04;8.50;91.40
32217;DHT22;18709;51.140;4.088;2022-12-07T02:59:41;8.50;91.40
32217;DHT22;18709;51.140;4.088;2022-12-07T03:08:11;8.50;91.50
32217;DHT22;18709;51.140;4.088;2022-12-07T03:10:56;8.40;91.50
32217;DHT22;18709;51.140;4.088;2022-12-07T03:18:22;8.30;91.50
32217;DHT22;18709;51.140;4.088;2022-12-07T03:20:52;8.30;91.50
32217;DHT22;18709;51.140;4.088;2022-12-07T03:23:19;8.20;91.70
32217;DHT22;18709;51.140;4.088;2022-12-07T03:25:49;8.10;91.70
32217;DHT22;18709;51.140;4.088;2022-12-07T03:28:19;8.00;92.00
32217;DHT22;18709;51.140;4.088;2022-12-07T03:30:47;8.00;92.10
32217;DHT22;18709;51.140;4.088;2022-12-07T03:33:31;8.00;92.00
32217;DHT22;18709;51.140;4.088;2022-12-07T03:36:03;8.00;92.00
32217;DHT22;18709;51.140;4.088;2022-12-07T03:38:35;7.90;92.10
32217;DHT22;18709;51.140;4.088;2022-12-07T03:41:22;8.00;92.10
32217;DHT22;18709;51.140;4.088;2022-12-07T03:43:49;8.00;92.20
32217;DHT22;18709;51.140;4.088;2022-12-07T03:46:19;7.90;92.50
32217;DHT22;18709;51.140;4.088;2022-12-07T03:52:15;8.00;92.40
32217;DHT22;18709;51.140;4.088;2022-12-07T03:55:02;7.90;92.50
32217;DHT22;18709;51.140;4.088;2022-12-07T03:57:30;7.80;92.80
32217;DHT22;18709;51.140;4.088;2022-12-07T03:59:57;7.80;92.70
32217;DHT22;18709;51.140;4.088;2022-12-07T04:02:25;7.80;92.40
32217;DHT22;18709;51.140;4.088;2022-12-07T04:04:52;7.80;91.60
32217;DHT22;18709;51.140;4.088;2022-12-07T04:07:18;7.80;91.40
32217;DHT22;18709;51.140;4.088;2022-12-07T04:09:44;7.70;91.40
32217;DHT22;18709;51.140;4.088;2022-12-07T04:12:09;7.70;91.50
32217;DHT22;18709;51.140;4.088;2022-12-07T04:14:35;7.70;91.40
32217;DHT22;18709;51.140;4.088;2022-12-07T04:17:00;7.70;91.20
32217;DHT22;18709;51.140;4.088;2022-12-07T04:19:29;7.60;91.00
32217;DHT22;18709;51.140;4.088;2022-12-07T04:21:55;7.50;91.00
32217;DHT22;18709;51.140;4.088;2022-12-07T04:24:21;7.40;91.10
32217;DHT22;18709;51.140;4.088;2022-12-07T04:26:47;7.40;91.10
32217;DHT22;18709;51.140;4.088;2022-12-07T04:29:13;7.20;91.20
32217;DHT22;18709;51.140;4.088;2022-12-07T04:31:39;7.10;91.20
32217;DHT22;18709;51.140;4.088;2022-12-07T04:34:05;7.20;91.00
32217;DHT22;18709;51.140;4.088;2022-12-07T04:36:32;7.20;90.80
32217;DHT22;18709;51.140;4.088;2022-12-07T04:38:58;7.20;90.50
32217;DHT22;18709;51.140;4.088;2022-12-07T04:41:25;7.20;90.30
32217;DHT22;18709;51.140;4.088;2022-12-07T04:43:58;7.20;90.30
32217;DHT22;18709;51.140;4.088;2022-12-07T04:46:25;7.10;90.40
32217;DHT22;18709;51.140;4.088;2022-12-07T04:48:52;7.00;90.70
32217;DHT22;18709;51.140;4.088;2022-12-07T04:51:24;7.10;90.70
32217;DHT22;18709;51.140;4.088;2022-12-07T04:53:50;7.10;90.90
32217;DHT22;18709;51.140;4.088;2022-12-07T04:56:16;7.10;91.10
32217;DHT22;18709;51.140;4.088;2022-12-07T04:58:43;7.10;91.50
32217;DHT22;18709;51.140;4.088;2022-12-07T05:01:09;7.10;91.30
32217;DHT22;18709;51.140;4.088;2022-12-07T05:03:36;7.40;91.00
32217;DHT22;18709;51.140;4.088;2022-12-07T05:06:02;7.40;91.20
32217;DHT22;18709;51.140;4.088;2022-12-07T05:08:28;7.40;91.40
32217;DHT22;18709;51.140;4.088;2022-12-07T05:10:54;7.40;91.30
32217;DHT22;18709;51.140;4.088;2022-12-07T05:13:19;7.50;91.30
32217;DHT22;18709;51.140;4.088;2022-12-07T05:15:47;7.40;91.20
32217;DHT22;18709;51.140;4.088;2022-12-07T05:18:13;7.50;91.30
32217;DHT22;18709;51.140;4.088;2022-12-07T05:20:40;7.40;91.70
32217;DHT22;18709;51.140;4.088;2022-12-07T05:23:06;7.50;91.60
32217;DHT22;18709;51.140;4.088;2022-12-07T05:25:31;7.40;91.80
32217;DHT22;18709;51.140;4.088;2022-12-07T05:27:57;7.50;91.80
32217;DHT22;18709;51.140;4.088;2022-12-07T05:30:23;7.50;91.90
32217;DHT22;18709;51.140;4.088;2022-12-07T05:32:49;7.50;92.00
32217;DHT22;18709;51.140;4.088;2022-12-07T05:35:16;7.40;92.00
32217;DHT22;18709;51.140;4.088;2022-12-07T05:37:41;7.30;92.20
32217;DHT22;18709;51.140;4.088;2022-12-07T05:40:07;7.30;92.30
32217;DHT22;18709;51.140;4.088;2022-12-07T05:42:34;7.40;92.10
32217;DHT22;18709;51.140;4.088;2022-12-07T05:44:59;7.40;92.10
32217;DHT22;18709;51.140;4.088;2022-12-07T05:47:25;7.40;92.00
32217;DHT22;18709;51.140;4.088;2022-12-07T05:49:50;7.30;92.30
32217;DHT22;18709;51.140;4.088;2022-12-07T05:52:16;7.30;92.30
32217;DHT22;18709;51.140;4.088;2022-12-07T05:54:42;7.40;92.20
32217;DHT22;18709;51.140;4.088;2022-12-07T05:57:08;7.50;92.10
32217;DHT22;18709;51.140;4.088;2022-12-07T05:59:33;7.50;92.40
32217;DHT22;18709;51.140;4.088;2022-12-07T06:02:02;7.60;92.10
32217;DHT22;18709;51.140;4.088;2022-12-07T06:04:33;7.60;92.10
32217;DHT22;18709;51.140;4.088;2022-12-07T06:06:59;7.50;92.30
32217;DHT22;18709;51.140;4.088;2022-12-07T06:09:26;7.50;92.10
32217;DHT22;18709;51.140;4.088;2022-12-07T06:11:52;7.60;91.70
32217;DHT22;18709;51.140;4.088;2022-12-07T06:14:37;7.70;91.70
32217;DHT22;18709;51.140;4.088;2022-12-07T06:17:02;7.70;91.70
32217;DHT22;18709;51.140;4.088;2022-12-07T06:19:28;7.60;91.90
32217;DHT22;18709;51.140;4.088;2022-12-07T06:21:55;7.60;91.90
32217;DHT22;18709;51.140;4.088;2022-12-07T06:24:21;7.70;91.80
32217;DHT22;18709;51.140;4.088;2022-12-07T06:26:47;7.80;91.70
32217;DHT22;18709;51.140;4.088;2022-12-07T06:29:13;7.80;91.90
32217;DHT22;18709;51.140;4.088;2022-12-07T06:31:39;7.80;91.80
32217;DHT22;18709;51.140;4.088;2022-12-07T06:34:08;7.90;91.80
32217;DHT22;18709;51.140;4.088;2022-12-07T06:36:34;7.90;91.80
32217;DHT22;18709;51.140;4.088;2022-12-07T06:39:02;7.80;91.90
32217;DHT22;18709;51.140;4.088;2022-12-07T06:41:27;7.80;91.90
32217;DHT22;18709;51.140;4.088;2022-12-07T06:43:53;7.90;91.90
32217;DHT22;18709;51.140;4.088;2022-12-07T06:46:19;7.70;92.10
32217;DHT22;18709;51.140;4.088;2022-12-07T06:48:46;7.80;92.10
32217;DHT22;18709;51.140;4.088;2022-12-07T06:51:11;7.60;92.20
32217;DHT22;18709;51.140;4.088;2022-12-07T06:53:37;7.60;92.40
32217;DHT22;18709;51.140;4.088;2022-12-07T06:56:04;7.50;92.30
32217;DHT22;18709;51.140;4.088;2022-12-07T06:58:30;7.50;92.20
32217;DHT22;18709;51.140;4.088;2022-12-07T07:00:56;7.60;92.10
32217;DHT22;18709;51.140;4.088;2022-12-07T07:03:21;7.60;91.90
32217;DHT22;18709;51.140;4.088;2022-12-07T07:05:47;7.60;91.90
32217;DHT22;18709;51.140;4.088;2022-12-07T07:08:13;7.50;91.80
32217;DHT22;18709;51.140;4.088;2022-12-07T07:10:39;7.50;91.70
32217;DHT22;18709;51.140;4.088;2022-12-07T07:13:05;7.50;91.60
32217;DHT22;18709;51.140;4.088;2022-12-07T07:15:31;7.40;91.60
32217;DHT22;18709;51.140;4.088;2022-12-07T07:17:57;7.40;91.60
32217;DHT22;18709;51.140;4.088;2022-12-07T07:20:23;7.30;91.60
32217;DHT22;18709;51.140;4.088;2022-12-07T07:22:49;7.20;91.70
32217;DHT22;18709;51.140;4.088;2022-12-07T07:25:15;7.30;91.50
32217;DHT22;18709;51.140;4.088;2022-12-07T07:27:41;7.30;91.50
32217;DHT22;18709;51.140;4.088;2022-12-07T07:30:07;7.20;91.60
32217;DHT22;18709;51.140;4.088;2022-12-07T07:32:33;7.10;92.00
32217;DHT22;18709;51.140;4.088;2022-12-07T07:34:59;7.20;91.90
32217;DHT22;18709;51.140;4.088;2022-12-07T07:37:25;7.20;91.90
32217;DHT22;18709;51.140;4.088;2022-12-07T07:39:50;7.10;92.20
32217;DHT22;18709;51.140;4.088;2022-12-07T07:42:16;7.20;92.10
32217;DHT22;18709;51.140;4.088;2022-12-07T07:44:41;7.10;92.40
32217;DHT22;18709;51.140;4.088;2022-12-07T07:47:07;7.00;92.60
32217;DHT22;18709;51.140;4.088;2022-12-07T07:49:33;7.00;92.60
32217;DHT22;18709;51.140;4.088;2022-12-07T07:51:58;7.10;92.70
32217;DHT22;18709;51.140;4.088;2022-12-07T07:54:24;7.20;92.50
32217;DHT22;18709;51.140;4.088;2022-12-07T07:56:49;7.30;92.80
32217;DHT22;18709;51.140;4.088;2022-12-07T07:59:15;7.30;92.90
32217;DHT22;18709;51.140;4.088;2022-12-07T08:01:41;7.40;93.00
32217;DHT22;18709;51.140;4.088;2022-12-07T08:04:07;7.50;92.90
32217;DHT22;18709;51.140;4.088;2022-12-07T08:06:32;7.50;92.90
32217;DHT22;18709;51.140;4.088;2022-12-07T08:08:58;7.60;92.60
32217;DHT22;18709;51.140;4.088;2022-12-07T08:11:24;7.60;92.70
32217;DHT22;18709;51.140;4.088;2022-12-07T08:13:50;7.60;92.60
32217;DHT22;18709;51.140;4.088;2022-12-07T08:16:16;7.60;92.70
32217;DHT22;18709;51.140;4.088;2022-12-07T08:18:42;7.70;92.60
32217;DHT22;18709;51.140;4.088;2022-12-07T08:21:11;7.70;92.80
32217;DHT22;18709;51.140;4.088;2022-12-07T08:23:38;7.70;92.80
32217;DHT22;18709;51.140;4.088;2022-12-07T08:26:09;7.90;92.60
32217;DHT22;18709;51.140;4.088;2022-12-07T08:28:36;7.90;92.80
32217;DHT22;18709;51.140;4.088;2022-12-07T08:31:16;7.90;92.70
32217;DHT22;18709;51.140;4.088;2022-12-07T08:33:42;7.90;92.80
32217;DHT22;18709;51.140;4.088;2022-12-07T08:36:09;8.00;92.70
32217;DHT22;18709;51.140;4.088;2022-12-07T08:38:37;8.10;92.40
32217;DHT22;18709;51.140;4.088;2022-12-07T08:41:03;8.20;92.20
32217;DHT22;18709;51.140;4.088;2022-12-07T08:43:28;8.20;92.00
32217;DHT22;18709;51.140;4.088;2022-12-07T08:48:30;8.10;91.80
32217;DHT22;18709;51.140;4.088;2022-12-07T08:50:57;8.10;91.70
32217;DHT22;18709;51.140;4.088;2022-12-07T08:53:23;8.00;91.60
32217;DHT22;18709;51.140;4.088;2022-12-07T08:55:49;8.00;91.60
32217;DHT22;18709;51.140;4.088;2022-12-07T08:58:15;8.00;91.50
32217;DHT22;18709;51.140;4.088;2022-12-07T09:00:40;8.00;91.50
32217;DHT22;18709;51.140;4.088;2022-12-07T09:03:07;7.90;91.70
32217;DHT22;18709;51.140;4.088;2022-12-07T09:05:33;7.80;92.20
32217;DHT22;18709;51.140;4.088;2022-12-07T09:08:01;8.00;92.30
32217;DHT22;18709;51.140;4.088;2022-12-07T09:10:27;8.10;92.60
32217;DHT22;18709;51.140;4.088;2022-12-07T09:12:53;8.20;92.40
32217;DHT22;18709;51.140;4.088;2022-12-07T09:15:19;8.30;92.10
32217;DHT22;18709;51.140;4.088;2022-12-07T09:17:45;8.30;92.10
32217;DHT22;18709;51.140;4.088;2022-12-07T09:20:11;8.30;91.90
32217;DHT22;18709;51.140;4.088;2022-12-07T09:22:37;8.30;91.90
32217;DHT22;18709;51.140;4.088;2022-12-07T09:25:04;8.30;91.80
32217;DHT22;18709;51.140;4.088;2022-12-07T09:27:30;8.20;92.00
32217;DHT22;18709;51.140;4.088;2022-12-07T09:29:56;8.20;92.10
32217;DHT22;18709;51.140;4.088;2022-12-07T09:32:21;8.20;92.30
32217;DHT22;18709;51.140;4.088;2022-12-07T09:34:47;8.10;92.40
32217;DHT22;18709;51.140;4.088;2022-12-07T09:37:13;8.20;92.30
32217;DHT22;18709;51.140;4.088;2022-12-07T09:39:39;8.20;92.20
32217;DHT22;18709;51.140;4.088;2022-12-07T09:42:07;8.30;92.10
32217;DHT22;18709;51.140;4.088;2022-12-07T09:44:34;8.30;92.30
32217;DHT22;18709;51.140;4.088;2022-12-07T09:47:00;8.30;92.50
32217;DHT22;18709;51.140;4.088;2022-12-07T09:49:29;8.40;92.40
32217;DHT22;18709;51.140;4.088;2022-12-07T09:54:36;8.50;92.30
32217;DHT22;18709;51.140;4.088;2022-12-07T09:57:05;8.60;92.00
32217;DHT22;18709;51.140;4.088;2022-12-07T09:59:31;8.60;92.00
32217;DHT22;18709;51.140;4.088;2022-12-07T10:02:22;8.50;92.00
32217;DHT22;18709;51.140;4.088;2022-12-07T10:04:49;8.50;92.10
32217;DHT22;18709;51.140;4.088;2022-12-07T10:07:14;8.50;92.10
32217;DHT22;18709;51.140;4.088;2022-12-07T10:09:40;8.60;92.10
32217;DHT22;18709;51.140;4.088;2022-12-07T10:12:11;8.60;92.20
32217;DHT22;18709;51.140;4.088;2022-12-07T10:14:38;8.60;92.50
32217;DHT22;18709;51.140;4.088;2022-12-07T10:17:40;8.70;92.60
32217;DHT22;18709;51.140;4.088;2022-12-07T10:22:38;8.50;92.70
32217;DHT22;18709;51.140;4.088;2022-12-07T10:25:20;8.50;93.00
32217;DHT22;18709;51.140;4.088;2022-12-07T10:27:58;8.60;92.80
32217;DHT22;18709;51.140;4.088;2022-12-07T10:30:25;8.60;93.10
32217;DHT22;18709;51.140;4.088;2022-12-07T10:32:50;8.60;93.00
32217;DHT22;18709;51.140;4.088;2022-12-07T10:35:25;8.90;92.90
32217;DHT22;18709;51.140;4.088;2022-12-07T10:37:53;9.00;92.90
32217;DHT22;18709;51.140;4.088;2022-12-07T10:40:32;9.20;92.80
32217;DHT22;18709;51.140;4.088;2022-12-07T10:43:18;9.30;92.80
32217;DHT22;18709;51.140;4.088;2022-12-07T10:59:11;9.40;92.30
32217;DHT22;18709;51.140;4.088;2022-12-07T11:01:49;9.50;92.10
32217;DHT22;18709;51.140;4.088;2022-12-07T11:13:28;9.80;92.00
32217;DHT22;18709;51.140;4.088;2022-12-07T11:18:55;10.00;91.60
32217;DHT22;18709;51.140;4.088;2022-12-07T11:38:46;9.80;91.50
32217;DHT22;18709;51.140;4.088;2022-12-07T11:41:13;9.70;91.80
32217;DHT22;18709;51.140;4.088;2022-12-07T11:44:16;9.60;92.10
32217;DHT22;18709;51.140;4.088;2022-12-07T11:46:51;9.60;91.90
32217;DHT22;18709;51.140;4.088;2022-12-07T11:51:51;9.50;92.10
32217;DHT22;18709;51.140;4.088;2022-12-07T11:54:21;9.60;92.30
32217;DHT22;18709;51.140;4.088;2022-12-07T11:56:50;9.70;92.00
32217;DHT22;18709;51.140;4.088;2022-12-07T11:59:25;9.80;92.00
32217;DHT22;18709;51.140;4.088;2022-12-07T12:01:57;9.90;91.80
32217;DHT22;18709;51.140;4.088;2022-12-07T12:04:46;10.00;91.70
32217;DHT22;18709;51.140;4.088;2022-12-07T12:07:17;9.90;91.70
32217;DHT22;18709;51.140;4.088;2022-12-07T12:18:01;9.90;91.20
32217;DHT22;18709;51.140;4.088;2022-12-07T12:20:50;10.00;90.80
32217;DHT22;18709;51.140;4.088;2022-12-07T12:25:59;10.10;90.50
32217;DHT22;18709;51.140;4.088;2022-12-07T12:31:11;10.20;90.50
32217;DHT22;18709;51.140;4.088;2022-12-07T12:33:42;10.20;90.50
32217;DHT22;18709;51.140;4.088;2022-12-07T12:52:00;10.40;90.40
32217;DHT22;18709;51.140;4.088;2022-12-07T12:57:28;10.50;90.10
32217;DHT22;18709;51.140;4.088;2022-12-07T13:21:46;9.90;90.10
32217;DHT22;18709;51.140;4.088;2022-12-07T13:26:36;9.80;90.40
32217;DHT22;18709;51.140;4.088;2022-12-07T13:29:16;9.90;90.50
32217;DHT22;18709;51.140;4.088;2022-12-07T13:31:56;10.00;90.50
32217;DHT22;18709;51.140;4.088;2022-12-07T13:37:25;10.20;90.30
32217;DHT22;18709;51.140;4.088;2022-12-07T13:40:17;10.30;90.10
32217;DHT22;18709;51.140;4.088;2022-12-07T13:42:43;10.40;90.00
32217;DHT22;18709;51.140;4.088;2022-12-07T13:45:30;10.40;90.00
32217;DHT22;18709;51.140;4.088;2022-12-07T13:51:05;10.30;90.00
32217;DHT22;18709;51.140;4.088;2022-12-07T13:53:30;10.30;90.20
32217;DHT22;18709;51.140;4.088;2022-12-07T13:56:00;10.30;90.30
32217;DHT22;18709;51.140;4.088;2022-12-07T13:58:31;10.30;90.30
32217;DHT22;18709;51.140;4.088;2022-12-07T14:00:58;10.50;90.20
32217;DHT22;18709;51.140;4.088;2022-12-07T14:03:31;10.50;90.10
32217;DHT22;18709;51.140;4.088;2022-12-07T14:06:24;10.50;90.10
32217;DHT22;18709;51.140;4.088;2022-12-07T14:09:07;10.50;90.00
32217;DHT22;18709;51.140;4.088;2022-12-07T14:11:33;10.20;90.10
32217;DHT22;18709;51.140;4.088;2022-12-07T14:14:01;10.10;90.10
32217;DHT22;18709;51.140;4.088;2022-12-07T14:16:36;9.80;89.80
32217;DHT22;18709;51.140;4.088;2022-12-07T14:19:04;9.70;90.40
32217;DHT22;18709;51.140;4.088;2022-12-07T14:21:32;9.70;90.40
32217;DHT22;18709;51.140;4.088;2022-12-07T14:24:16;9.60;90.70
32217;DHT22;18709;51.140;4.088;2022-12-07T14:26:44;9.70;90.80
32217;DHT22;18709;51.140;4.088;2022-12-07T14:29:30;9.70;90.80
32217;DHT22;18709;51.140;4.088;2022-12-07T14:31:59;9.60;90.80
32217;DHT22;18709;51.140;4.088;2022-12-07T14:34:29;9.50;91.10
32217;DHT22;18709;51.140;4.088;2022-12-07T14:36:55;9.40;91.20
32217;DHT22;18709;51.140;4.088;2022-12-07T14:39:21;9.30;91.60
32217;DHT22;18709;51.140;4.088;2022-12-07T14:41:46;9.30;91.40
32217;DHT22;18709;51.140;4.088;2022-12-07T14:44:22;9.30;91.30
32217;DHT22;18709;51.140;4.088;2022-12-07T14:46:49;9.30;91.20
32217;DHT22;18709;51.140;4.088;2022-12-07T14:49:16;9.40;90.90
32217;DHT22;18709;51.140;4.088;2022-12-07T14:51:42;9.30;91.10
32217;DHT22;18709;51.140;4.088;2022-12-07T14:54:20;9.30;91.00
32217;DHT22;18709;51.140;4.088;2022-12-07T14:56:46;9.30;90.90
32217;DHT22;18709;51.140;4.088;2022-12-07T14:59:16;9.30;90.80
32217;DHT22;18709;51.140;4.088;2022-12-07T15:01:42;9.20;91.10
32217;DHT22;18709;51.140;4.088;2022-12-07T15:04:08;9.10;91.10
32217;DHT22;18709;51.140;4.088;2022-12-07T15:06:33;9.10;91.20
32217;DHT22;18709;51.140;4.088;2022-12-07T15:08:59;9.00;91.20
32217;DHT22;18709;51.140;4.088;2022-12-07T15:11:24;9.00;91.00
32217;DHT22;18709;51.140;4.088;2022-12-07T15:13:50;9.10;90.70
32217;DHT22;18709;51.140;4.088;2022-12-07T15:16:39;9.10;90.70
32217;DHT22;18709;51.140;4.088;2022-12-07T15:19:07;9.10;90.50
32217;DHT22;18709;51.140;4.088;2022-12-07T15:21:35;9.10;90.60
32217;DHT22;18709;51.140;4.088;2022-12-07T15:24:01;9.00;90.60
32217;DHT22;18709;51.140;4.088;2022-12-07T15:26:26;9.00;90.40
32217;DHT22;18709;51.140;4.088;2022-12-07T15:28:53;8.90;90.30
32217;DHT22;18709;51.140;4.088;2022-12-07T15:31:20;8.90;90.20
32217;DHT22;18709;51.140;4.088;2022-12-07T15:33:46;8.90;90.20
32217;DHT22;18709;51.140;4.088;2022-12-07T15:36:22;8.90;90.20
32217;DHT22;18709;51.140;4.088;2022-12-07T15:38:49;8.90;90.30
32217;DHT22;18709;51.140;4.088;2022-12-07T15:41:15;8.90;90.50
32217;DHT22;18709;51.140;4.088;2022-12-07T15:43:41;8.80;90.50
32217;DHT22;18709;51.140;4.088;2022-12-07T15:46:32;8.80;90.60
32217;DHT22;18709;51.140;4.088;2022-12-07T15:48:58;8.80;90.90
32217;DHT22;18709;51.140;4.088;2022-12-07T15:51:24;8.80;91.10
32217;DHT22;18709;51.140;4.088;2022-12-07T15:53:50;8.80;91.20
32217;DHT22;18709;51.140;4.088;2022-12-07T15:56:16;8.90;91.20
32217;DHT22;18709;51.140;4.088;2022-12-07T15:58:42;8.90;91.10
32217;DHT22;18709;51.140;4.088;2022-12-07T16:01:15;9.00;91.20
32217;DHT22;18709;51.140;4.088;2022-12-07T16:03:42;9.00;91.30
32217;DHT22;18709;51.140;4.088;2022-12-07T16:06:08;8.90;91.30
32217;DHT22;18709;51.140;4.088;2022-12-07T16:08:34;9.00;91.20
32217;DHT22;18709;51.140;4.088;2022-12-07T16:11:00;9.00;91.20
32217;DHT22;18709;51.140;4.088;2022-12-07T16:13:25;9.00;91.10
32217;DHT22;18709;51.140;4.088;2022-12-07T16:15:51;8.90;91.10
32217;DHT22;18709;51.140;4.088;2022-12-07T16:18:16;8.90;91.20
32217;DHT22;18709;51.140;4.088;2022-12-07T16:20:42;8.90;91.30
32217;DHT22;18709;51.140;4.088;2022-12-07T16:23:07;8.90;91.30
32217;DHT22;18709;51.140;4.088;2022-12-07T16:25:33;8.90;91.50
32217;DHT22;18709;51.140;4.088;2022-12-07T16:27:59;8.90;91.50
32217;DHT22;18709;51.140;4.088;2022-12-07T16:30:25;8.90;91.50
32217;DHT22;18709;51.140;4.088;2022-12-07T16:32:51;8.80;91.40
32217;DHT22;18709;51.140;4.088;2022-12-07T16:35:17;8.90;91.30
32217;DHT22;18709;51.140;4.088;2022-12-07T16:37:43;8.90;91.10
32217;DHT22;18709;51.140;4.088;2022-12-07T16:40:09;8.90;91.20
32217;DHT22;18709;51.140;4.088;2022-12-07T16:42:35;8.90;91.30
32217;DHT22;18709;51.140;4.088;2022-12-07T16:45:02;8.80;91.00
32217;DHT22;18709;51.140;4.088;2022-12-07T16:47:28;8.80;91.00
32217;DHT22;18709;51.140;4.088;2022-12-07T16:49:53;8.70;91.00
32217;DHT22;18709;51.140;4.088;2022-12-07T16:52:20;8.70;90.90
32217;DHT22;18709;51.140;4.088;2022-12-07T16:54:47;8.70;91.30
32217;DHT22;18709;51.140;4.088;2022-12-07T16:57:13;8.70;91.20
32217;DHT22;18709;51.140;4.088;2022-12-07T16:59:38;8.70;91.20
32217;DHT22;18709;51.140;4.088;2022-12-07T17:02:04;8.70;91.40
32217;DHT22;18709;51.140;4.088;2022-12-07T17:04:33;8.60;91.40
32217;DHT22;18709;51.140;4.088;2022-12-07T17:06:58;8.60;91.50
32217;DHT22;18709;51.140;4.088;2022-12-07T17:09:24;8.60;91.50
32217;DHT22;18709;51.140;4.088;2022-12-07T17:11:50;8.70;91.40
32217;DHT22;18709;51.140;4.088;2022-12-07T17:14:16;8.70;91.40
32217;DHT22;18709;51.140;4.088;2022-12-07T17:17:01;8.70;91.50
32217;DHT22;18709;51.140;4.088;2022-12-07T17:19:27;8.60;91.50
32217;DHT22;18709;51.140;4.088;2022-12-07T17:21:52;8.60;91.50
32217;DHT22;18709;51.140;4.088;2022-12-07T17:24:18;8.60;91.40
32217;DHT22;18709;51.140;4.088;2022-12-07T17:26:45;8.50;91.20
32217;DHT22;18709;51.140;4.088;2022-12-07T17:29:12;8.50;91.10
32217;DHT22;18709;51.140;4.088;2022-12-07T17:31:38;8.50;91.00
32217;DHT22;18709;51.140;4.088;2022-12-07T17:34:10;8.50;91.00
32217;DHT22;18709;51.140;4.088;2022-12-07T17:36:36;8.50;90.90
32217;DHT22;18709;51.140;4.088;2022-12-07T17:39:06;8.40;90.90
32217;DHT22;18709;51.140;4.088;2022-12-07T17:41:32;8.40;90.80
32217;DHT22;18709;51.140;4.088;2022-12-07T17:44:18;8.40;90.90
32217;DHT22;18709;51.140;4.088;2022-12-07T17:46:45;8.30;91.10
32217;DHT22;18709;51.140;4.088;2022-12-07T17:49:12;8.30;91.10
32217;DHT22;18709;51.140;4.088;2022-12-07T17:51:37;8.30;91.20
32217;DHT22;18709;51.140;4.088;2022-12-07T17:54:22;8.40;91.20
32217;DHT22;18709;51.140;4.088;2022-12-07T17:56:48;8.30;91.40
32217;DHT22;18709;51.140;4.088;2022-12-07T17:59:14;8.20;91.80
32217;DHT22;18709;51.140;4.088;2022-12-07T18:01:41;8.10;91.80
32217;DHT22;18709;51.140;4.088;2022-12-07T18:04:06;8.10;91.80
32217;DHT22;18709;51.140;4.088;2022-12-07T18:06:33;7.90;92.10
32217;DHT22;18709;51.140;4.088;2022-12-07T18:08:59;8.00;92.00
32217;DHT22;18709;51.140;4.088;2022-12-07T18:11:25;7.90;92.20